QFA143 YSSY-NZAA
Flight info
| Callsign | QFA143 |
|---|---|
| Flight time | N/A |
| Altitude | 35000 |
| Route | EVONN L521 LUNBI |
| Aircraft | B738/M-SDE2E3FGHIRWXY/LB1 |
Departure
| Time | 2026-05-05 22:59 |
|---|---|
| Airport | Sydney Kingsford Smith International Airport (YSSY) |
Arrival
| Time | N/A |
|---|---|
| Airport | Auckland International Airport (NZAA) |
| Time | Latitude | Longitude | Altitude | Speed | Heading |
|---|---|---|---|---|---|
| 2026-05-05 22:44 | -33.93796 | 151.16950 | 28 ft | 0 kts | 254° |
| 2026-05-05 22:48 | -33.93795 | 151.16954 | 32 ft | 3 kts | 253° |
| 2026-05-05 22:48 | -33.93785 | 151.16983 | 29 ft | 4 kts | 237° |
| 2026-05-05 22:48 | -33.93770 | 151.17009 | 29 ft | 4 kts | 245° |
| 2026-05-05 22:48 | -33.93768 | 151.17034 | 29 ft | 4 kts | 288° |
| 2026-05-05 22:49 | -33.93782 | 151.17058 | 29 ft | 4 kts | 332° |
| 2026-05-05 22:49 | -33.93807 | 151.17068 | 29 ft | 4 kts | 349° |
| 2026-05-05 22:49 | -33.93814 | 151.17069 | 29 ft | 1 kts | 348° |
| 2026-05-05 22:51 | -33.93793 | 151.17064 | 29 ft | 7 kts | 348° |
| 2026-05-05 22:51 | -33.93731 | 151.17066 | 29 ft | 11 kts | 27° |
| 2026-05-05 22:51 | -33.93710 | 151.17128 | 28 ft | 8 kts | 105° |
| 2026-05-05 22:52 | -33.93749 | 151.17167 | 28 ft | 8 kts | 163° |
| 2026-05-05 22:52 | -33.93806 | 151.17183 | 28 ft | 11 kts | 167° |
| 2026-05-05 22:52 | -33.93905 | 151.17208 | 28 ft | 18 kts | 168° |
| 2026-05-05 22:52 | -33.94044 | 151.17244 | 28 ft | 22 kts | 168° |
| 2026-05-05 22:53 | -33.94200 | 151.17284 | 28 ft | 23 kts | 168° |
| 2026-05-05 22:53 | -33.94354 | 151.17324 | 29 ft | 22 kts | 168° |
| 2026-05-05 22:53 | -33.94504 | 151.17362 | 29 ft | 22 kts | 168° |
| 2026-05-05 22:53 | -33.94649 | 151.17398 | 29 ft | 21 kts | 168° |
| 2026-05-05 22:54 | -33.94790 | 151.17434 | 29 ft | 20 kts | 167° |
| 2026-05-05 22:54 | -33.94926 | 151.17472 | 29 ft | 20 kts | 168° |
| 2026-05-05 22:54 | -33.95058 | 151.17507 | 29 ft | 19 kts | 166° |
| 2026-05-05 22:54 | -33.95186 | 151.17540 | 28 ft | 19 kts | 168° |
| 2026-05-05 22:55 | -33.95310 | 151.17572 | 28 ft | 18 kts | 168° |
| 2026-05-05 22:55 | -33.95429 | 151.17603 | 29 ft | 17 kts | 168° |
| 2026-05-05 22:55 | -33.95545 | 151.17633 | 29 ft | 17 kts | 167° |
| 2026-05-05 22:55 | -33.95656 | 151.17661 | 29 ft | 16 kts | 168° |
| 2026-05-05 22:56 | -33.95762 | 151.17688 | 29 ft | 15 kts | 167° |
| 2026-05-05 22:56 | -33.95866 | 151.17717 | 29 ft | 16 kts | 167° |
| 2026-05-05 22:56 | -33.95987 | 151.17749 | 29 ft | 20 kts | 167° |
| 2026-05-05 22:56 | -33.96140 | 151.17789 | 29 ft | 25 kts | 168° |
| 2026-05-05 22:57 | -33.96315 | 151.17833 | 29 ft | 22 kts | 168° |
| 2026-05-05 22:57 | -33.96437 | 151.17915 | 29 ft | 17 kts | 100° |
| 2026-05-05 22:57 | -33.96414 | 151.18038 | 29 ft | 6 kts | 56° |
| 2026-05-05 22:57 | -33.96372 | 151.18051 | 29 ft | 6 kts | 349° |
| 2026-05-05 22:58 | -33.96342 | 151.18043 | 29 ft | 2 kts | 349° |
| 2026-05-05 22:58 | -33.96330 | 151.18040 | 29 ft | 2 kts | 348° |
| 2026-05-05 22:58 | -33.96161 | 151.17996 | 27 ft | 67 kts | 348° |
| 2026-05-05 22:58 | -33.95428 | 151.17804 | 28 ft | 146 kts | 347° |
| 2026-05-05 22:59 | -33.94250 | 151.17517 | 397 ft | 184 kts | 347° |
| 2026-05-05 22:59 | -33.93005 | 151.17210 | 1625 ft | 183 kts | 344° |
| 2026-05-05 22:59 | -33.91683 | 151.16828 | 2395 ft | 206 kts | 339° |
| 2026-05-05 22:59 | -33.90229 | 151.16299 | 2692 ft | 233 kts | 337° |
| 2026-05-05 23:00 | -33.86772 | 151.15338 | 3724 ft | 274 kts | 5° |
| 2026-05-05 23:00 | -33.85005 | 151.16234 | 4551 ft | 284 kts | 37° |
| 2026-05-05 23:00 | -33.83782 | 151.18069 | 5474 ft | 281 kts | 66° |
| 2026-05-05 23:01 | -33.83354 | 151.20335 | 6347 ft | 281 kts | 93° |
| 2026-05-05 23:01 | -33.83775 | 151.22626 | 7082 ft | 284 kts | 114° |
| 2026-05-05 23:01 | -33.84649 | 151.24784 | 7764 ft | 291 kts | 120° |
| 2026-05-05 23:01 | -33.85634 | 151.26944 | 8451 ft | 297 kts | 121° |
| 2026-05-05 23:02 | -33.86657 | 151.29139 | 9166 ft | 304 kts | 121° |
| 2026-05-05 23:02 | -33.87686 | 151.31355 | 9843 ft | 310 kts | 120° |
| 2026-05-05 23:02 | -33.88746 | 151.33661 | 10388 ft | 323 kts | 120° |
| 2026-05-05 23:02 | -33.89865 | 151.36117 | 10548 ft | 347 kts | 119° |
| 2026-05-05 23:03 | -33.91054 | 151.38748 | 10723 ft | 369 kts | 119° |
| 2026-05-05 23:03 | -33.92299 | 151.41521 | 11101 ft | 382 kts | 119° |
| 2026-05-05 23:03 | -33.93568 | 151.44361 | 11713 ft | 387 kts | 119° |
| 2026-05-05 23:03 | -33.94849 | 151.47237 | 12354 ft | 392 kts | 118° |
| 2026-05-05 23:04 | -33.96148 | 151.50157 | 12957 ft | 398 kts | 118° |
| 2026-05-05 23:04 | -33.97462 | 151.53116 | 13546 ft | 403 kts | 118° |
| 2026-05-05 23:04 | -33.98797 | 151.56122 | 14161 ft | 408 kts | 118° |
| 2026-05-05 23:04 | -34.00137 | 151.59145 | 14747 ft | 411 kts | 118° |
| 2026-05-05 23:05 | -34.01492 | 151.62202 | 15319 ft | 416 kts | 118° |
| 2026-05-05 23:05 | -34.02859 | 151.65291 | 15912 ft | 419 kts | 118° |
| 2026-05-05 23:05 | -34.04218 | 151.68363 | 16487 ft | 423 kts | 118° |
| 2026-05-05 23:05 | -34.05609 | 151.71509 | 17041 ft | 427 kts | 118° |
| 2026-05-05 23:06 | -34.07013 | 151.74689 | 17576 ft | 431 kts | 118° |
| 2026-05-05 23:06 | -34.08428 | 151.77897 | 18114 ft | 436 kts | 118° |
| 2026-05-05 23:06 | -34.09859 | 151.81144 | 18643 ft | 439 kts | 118° |
| 2026-05-05 23:06 | -34.11299 | 151.84413 | 19131 ft | 443 kts | 118° |
| 2026-05-05 23:07 | -34.12747 | 151.87705 | 19597 ft | 446 kts | 118° |
| 2026-05-05 23:07 | -34.14210 | 151.91035 | 20061 ft | 450 kts | 118° |
| 2026-05-05 23:07 | -34.15681 | 151.94386 | 20544 ft | 453 kts | 117° |
| 2026-05-05 23:07 | -34.17164 | 151.97765 | 21008 ft | 456 kts | 117° |
| 2026-05-05 23:08 | -34.18634 | 152.01118 | 21458 ft | 460 kts | 117° |
| 2026-05-05 23:08 | -34.20038 | 152.04603 | 21875 ft | 463 kts | 111° |
| 2026-05-05 23:08 | -34.21174 | 152.08250 | 22325 ft | 465 kts | 108° |
| 2026-05-05 23:08 | -34.22238 | 152.11954 | 22768 ft | 468 kts | 107° |
| 2026-05-05 23:09 | -34.23281 | 152.15693 | 23173 ft | 471 kts | 107° |
| 2026-05-05 23:09 | -34.24332 | 152.19469 | 23571 ft | 475 kts | 107° |
| 2026-05-05 23:09 | -34.25399 | 152.23262 | 23944 ft | 478 kts | 107° |
| 2026-05-05 23:09 | -34.26488 | 152.27090 | 24281 ft | 481 kts | 108° |
| 2026-05-05 23:10 | -34.27588 | 152.30921 | 24598 ft | 484 kts | 108° |
| 2026-05-05 23:10 | -34.28700 | 152.34778 | 24919 ft | 487 kts | 108° |
| 2026-05-05 23:10 | -34.29820 | 152.38656 | 25255 ft | 490 kts | 108° |
| 2026-05-05 23:10 | -34.30948 | 152.42558 | 25588 ft | 492 kts | 108° |
| 2026-05-05 23:11 | -34.32080 | 152.46483 | 25896 ft | 495 kts | 108° |
| 2026-05-05 23:11 | -34.33201 | 152.50375 | 26185 ft | 498 kts | 108° |
| 2026-05-05 23:11 | -34.34343 | 152.54346 | 26497 ft | 501 kts | 108° |
| 2026-05-05 23:11 | -34.35487 | 152.58332 | 26801 ft | 503 kts | 108° |
| 2026-05-05 23:12 | -34.36636 | 152.62344 | 27084 ft | 505 kts | 108° |
| 2026-05-05 23:12 | -34.37789 | 152.66375 | 27363 ft | 508 kts | 108° |
| 2026-05-05 23:12 | -34.38945 | 152.70423 | 27659 ft | 510 kts | 108° |
| 2026-05-05 23:12 | -34.40105 | 152.74492 | 27950 ft | 512 kts | 108° |
| 2026-05-05 23:13 | -34.41270 | 152.78582 | 28212 ft | 515 kts | 108° |
| 2026-05-05 23:13 | -34.42438 | 152.82689 | 28465 ft | 517 kts | 108° |
| 2026-05-05 23:13 | -34.43612 | 152.86824 | 28738 ft | 519 kts | 108° |
| 2026-05-05 23:13 | -34.44786 | 152.90963 | 29018 ft | 521 kts | 108° |
| 2026-05-05 23:14 | -34.45963 | 152.95122 | 29261 ft | 523 kts | 108° |
| 2026-05-05 23:14 | -34.47148 | 152.99313 | 29499 ft | 525 kts | 108° |
| 2026-05-05 23:14 | -34.48323 | 153.03473 | 29764 ft | 527 kts | 108° |
| 2026-05-05 23:14 | -34.49507 | 153.07673 | 30087 ft | 527 kts | 108° |
| 2026-05-05 23:15 | -34.50691 | 153.11879 | 30416 ft | 526 kts | 108° |
| 2026-05-05 23:15 | -34.51871 | 153.16080 | 30728 ft | 525 kts | 108° |
| 2026-05-05 23:15 | -34.53050 | 153.20279 | 31029 ft | 524 kts | 108° |
| 2026-05-05 23:15 | -34.54225 | 153.24472 | 31312 ft | 524 kts | 108° |
| 2026-05-05 23:16 | -34.55397 | 153.28660 | 31571 ft | 524 kts | 108° |
| 2026-05-05 23:16 | -34.56567 | 153.32849 | 31836 ft | 524 kts | 108° |
| 2026-05-05 23:16 | -34.57735 | 153.37038 | 32147 ft | 523 kts | 108° |
| 2026-05-05 23:16 | -34.58895 | 153.41204 | 32460 ft | 521 kts | 108° |
| 2026-05-05 23:17 | -34.60055 | 153.45376 | 32722 ft | 521 kts | 108° |
| 2026-05-05 23:17 | -34.61200 | 153.49497 | 32955 ft | 522 kts | 108° |
| 2026-05-05 23:17 | -34.62357 | 153.53671 | 33229 ft | 521 kts | 108° |
| 2026-05-05 23:17 | -34.63511 | 153.57842 | 33530 ft | 520 kts | 108° |
| 2026-05-05 23:18 | -34.64659 | 153.61995 | 33793 ft | 519 kts | 108° |
| 2026-05-05 23:18 | -34.65808 | 153.66156 | 34029 ft | 519 kts | 108° |
| 2026-05-05 23:18 | -34.66954 | 153.70314 | 34276 ft | 519 kts | 108° |
| 2026-05-05 23:18 | -34.68096 | 153.74465 | 34521 ft | 517 kts | 108° |
| 2026-05-05 23:19 | -34.69234 | 153.78608 | 34736 ft | 517 kts | 108° |
| 2026-05-05 23:19 | -34.70369 | 153.82746 | 34920 ft | 517 kts | 108° |
| 2026-05-05 23:19 | -34.71505 | 153.86892 | 35124 ft | 515 kts | 107° |
| 2026-05-05 23:19 | -34.72638 | 153.91033 | 35178 ft | 516 kts | 107° |
| 2026-05-05 23:20 | -34.74902 | 153.99329 | 35182 ft | 516 kts | 107° |
| 2026-05-05 23:20 | -34.77140 | 154.07558 | 35180 ft | 514 kts | 107° |
| 2026-05-05 23:21 | -34.79380 | 154.15815 | 35182 ft | 512 kts | 107° |
| 2026-05-05 23:21 | -34.81605 | 154.24042 | 35179 ft | 511 kts | 107° |
| 2026-05-05 23:22 | -34.83821 | 154.32261 | 35177 ft | 510 kts | 107° |
| 2026-05-05 23:22 | -34.86027 | 154.40468 | 35173 ft | 509 kts | 107° |
| 2026-05-05 23:23 | -34.88210 | 154.48614 | 35176 ft | 509 kts | 107° |
| 2026-05-05 23:23 | -34.90407 | 154.56840 | 35327 ft | 512 kts | 107° |
| 2026-05-05 23:24 | -34.91507 | 154.60967 | 35561 ft | 511 kts | 107° |
| 2026-05-05 23:24 | -34.92603 | 154.65084 | 35806 ft | 509 kts | 107° |
| 2026-05-05 23:24 | -34.93694 | 154.69190 | 36009 ft | 508 kts | 107° |
| 2026-05-05 23:24 | -34.94784 | 154.73296 | 36173 ft | 509 kts | 107° |
| 2026-05-05 23:25 | -34.95868 | 154.77392 | 36359 ft | 508 kts | 107° |
| 2026-05-05 23:25 | -34.96938 | 154.81435 | 36564 ft | 507 kts | 107° |
| 2026-05-05 23:25 | -34.98032 | 154.85578 | 36760 ft | 506 kts | 107° |
| 2026-05-05 23:25 | -34.99097 | 154.89618 | 36920 ft | 506 kts | 107° |
| 2026-05-05 23:26 | -35.00174 | 154.93708 | 37065 ft | 507 kts | 107° |
| 2026-05-05 23:26 | -35.01250 | 154.97800 | 37155 ft | 507 kts | 107° |
| 2026-05-05 23:26 | -35.02327 | 155.01903 | 37281 ft | 508 kts | 106° |
| 2026-05-05 23:26 | -35.03401 | 155.06007 | 37204 ft | 507 kts | 106° |
| 2026-05-05 23:27 | -35.05534 | 155.14163 | 37167 ft | 500 kts | 106° |
| 2026-05-05 23:27 | -35.07642 | 155.22236 | 37172 ft | 498 kts | 106° |
| 2026-05-05 23:28 | -35.09385 | 155.28934 | 37172 ft | 497 kts | 106° |
| 2026-05-05 23:28 | -35.11471 | 155.36974 | 37169 ft | 497 kts | 106° |
| 2026-05-05 23:29 | -35.13552 | 155.45026 | 37171 ft | 497 kts | 106° |
| 2026-05-05 23:29 | -35.15632 | 155.53098 | 37167 ft | 499 kts | 105° |
| 2026-05-05 23:30 | -35.17714 | 155.61199 | 37181 ft | 500 kts | 105° |
| 2026-05-05 23:30 | -35.19783 | 155.69277 | 37176 ft | 502 kts | 105° |
| 2026-05-05 23:31 | -35.21866 | 155.77437 | 37158 ft | 503 kts | 105° |
| 2026-05-05 23:31 | -35.23953 | 155.85634 | 37165 ft | 505 kts | 105° |
| 2026-05-05 23:32 | -35.26036 | 155.93843 | 37166 ft | 506 kts | 105° |
| 2026-05-05 23:32 | -35.28119 | 156.02078 | 37152 ft | 506 kts | 105° |
| 2026-05-05 23:33 | -35.30197 | 156.10319 | 37153 ft | 506 kts | 105° |
| 2026-05-05 23:33 | -35.32268 | 156.18558 | 37159 ft | 506 kts | 105° |
| 2026-05-05 23:34 | -35.34331 | 156.26791 | 37156 ft | 505 kts | 105° |
| 2026-05-05 23:34 | -35.36372 | 156.34965 | 37154 ft | 505 kts | 105° |
| 2026-05-05 23:35 | -35.38422 | 156.43202 | 37157 ft | 504 kts | 105° |
| 2026-05-05 23:35 | -35.40459 | 156.51410 | 37154 ft | 503 kts | 105° |
| 2026-05-05 23:36 | -35.42488 | 156.59616 | 37150 ft | 502 kts | 105° |
| 2026-05-05 23:36 | -35.44509 | 156.67813 | 37147 ft | 502 kts | 105° |
| 2026-05-05 23:37 | -35.46512 | 156.75968 | 37147 ft | 502 kts | 104° |
| 2026-05-05 23:37 | -35.48522 | 156.84172 | 37150 ft | 502 kts | 104° |
| 2026-05-05 23:38 | -35.50528 | 156.92391 | 37143 ft | 502 kts | 104° |
| 2026-05-05 23:38 | -35.52530 | 157.00619 | 37143 ft | 503 kts | 104° |
| 2026-05-05 23:39 | -35.54528 | 157.08858 | 37142 ft | 503 kts | 104° |
| 2026-05-05 23:39 | -35.56510 | 157.17056 | 37137 ft | 504 kts | 104° |
| 2026-05-05 23:40 | -35.58503 | 157.25332 | 37136 ft | 505 kts | 104° |
| 2026-05-05 23:40 | -35.60490 | 157.33605 | 37137 ft | 505 kts | 104° |
| 2026-05-05 23:41 | -35.62474 | 157.41896 | 37136 ft | 506 kts | 104° |
| 2026-05-05 23:41 | -35.64453 | 157.50194 | 37138 ft | 506 kts | 104° |
| 2026-05-05 23:42 | -35.66426 | 157.58495 | 37140 ft | 506 kts | 104° |
| 2026-05-05 23:42 | -35.68396 | 157.66812 | 37136 ft | 506 kts | 104° |
| 2026-05-05 23:43 | -35.70345 | 157.75068 | 37132 ft | 506 kts | 104° |
| 2026-05-05 23:43 | -35.72302 | 157.83386 | 37129 ft | 506 kts | 104° |
| 2026-05-05 23:44 | -35.74252 | 157.91702 | 37130 ft | 505 kts | 104° |
| 2026-05-05 23:44 | -35.76194 | 158.00011 | 37134 ft | 505 kts | 103° |
| 2026-05-05 23:45 | -35.78121 | 158.08312 | 37129 ft | 504 kts | 102° |
| 2026-05-05 23:45 | -35.79710 | 158.16710 | 37133 ft | 502 kts | 99° |
| 2026-05-05 23:46 | -35.81082 | 158.25083 | 37130 ft | 501 kts | 98° |
| 2026-05-05 23:46 | -35.82465 | 158.33512 | 37132 ft | 501 kts | 98° |
| 2026-05-05 23:47 | -35.83881 | 158.41927 | 37128 ft | 501 kts | 99° |
| 2026-05-05 23:47 | -35.85307 | 158.50330 | 37124 ft | 501 kts | 99° |
| 2026-05-05 23:48 | -35.86730 | 158.58730 | 37122 ft | 501 kts | 99° |
| 2026-05-05 23:48 | -35.88146 | 158.67145 | 37132 ft | 501 kts | 98° |
| 2026-05-05 23:49 | -35.89544 | 158.75497 | 37120 ft | 501 kts | 98° |
| 2026-05-05 23:49 | -35.90946 | 158.83909 | 37123 ft | 501 kts | 98° |
| 2026-05-05 23:50 | -35.92341 | 158.92319 | 37121 ft | 501 kts | 98° |
| 2026-05-05 23:50 | -35.93731 | 159.00743 | 37125 ft | 500 kts | 98° |
| 2026-05-05 23:51 | -35.95115 | 159.09163 | 37124 ft | 500 kts | 98° |
| 2026-05-05 23:51 | -35.96491 | 159.17573 | 37121 ft | 500 kts | 98° |
| 2026-05-05 23:52 | -35.97863 | 159.25998 | 37119 ft | 500 kts | 98° |
| 2026-05-05 23:52 | -35.99218 | 159.34358 | 37118 ft | 499 kts | 98° |
| 2026-05-05 23:53 | -36.00577 | 159.42780 | 37109 ft | 499 kts | 98° |
| 2026-05-05 23:53 | -36.01926 | 159.51182 | 37112 ft | 499 kts | 98° |
| 2026-05-05 23:54 | -36.03270 | 159.59586 | 37109 ft | 498 kts | 98° |
| 2026-05-05 23:54 | -36.04606 | 159.67987 | 37111 ft | 498 kts | 98° |
| 2026-05-05 23:55 | -36.05934 | 159.76375 | 37106 ft | 497 kts | 98° |
| 2026-05-05 23:55 | -36.07255 | 159.84755 | 37104 ft | 497 kts | 98° |
| 2026-05-05 23:56 | -36.08569 | 159.93133 | 37098 ft | 496 kts | 97° |
| 2026-05-05 23:56 | -36.09867 | 160.01452 | 37098 ft | 496 kts | 97° |
| 2026-05-05 23:57 | -36.11168 | 160.09823 | 37097 ft | 495 kts | 97° |
| 2026-05-05 23:57 | -36.12462 | 160.18195 | 37098 ft | 495 kts | 97° |
| 2026-05-05 23:58 | -36.13750 | 160.26569 | 37091 ft | 495 kts | 97° |
| 2026-05-05 23:58 | -36.15033 | 160.34949 | 37088 ft | 496 kts | 97° |
| 2026-05-05 23:59 | -36.16311 | 160.43337 | 37088 ft | 496 kts | 97° |
| 2026-05-05 23:59 | -36.17582 | 160.51723 | 37094 ft | 496 kts | 97° |
| 2026-05-06 00:00 | -36.18850 | 160.60125 | 37087 ft | 496 kts | 97° |
| 2026-05-06 00:00 | -36.20112 | 160.68533 | 37087 ft | 497 kts | 97° |
| 2026-05-06 00:01 | -36.21360 | 160.76888 | 37083 ft | 497 kts | 97° |
| 2026-05-06 00:01 | -36.22611 | 160.85306 | 37086 ft | 497 kts | 97° |
| 2026-05-06 00:02 | -36.23857 | 160.93733 | 37077 ft | 497 kts | 97° |
| 2026-05-06 00:02 | -36.25096 | 161.02152 | 37074 ft | 496 kts | 97° |
| 2026-05-06 00:03 | -36.26328 | 161.10569 | 37071 ft | 496 kts | 97° |
| 2026-05-06 00:03 | -36.27547 | 161.18939 | 37069 ft | 496 kts | 97° |
| 2026-05-06 00:04 | -36.28766 | 161.27354 | 37072 ft | 495 kts | 97° |
| 2026-05-06 00:04 | -36.29978 | 161.35760 | 37068 ft | 495 kts | 97° |
| 2026-05-06 00:05 | -36.31773 | 161.48297 | 37068 ft | 494 kts | 97° |
| 2026-05-06 00:06 | -36.32968 | 161.56692 | 37071 ft | 494 kts | 96° |
| 2026-05-06 00:06 | -36.34156 | 161.65088 | 37069 ft | 493 kts | 96° |
| 2026-05-06 00:07 | -36.35335 | 161.73461 | 37068 ft | 493 kts | 96° |
| 2026-05-06 00:07 | -36.36510 | 161.81846 | 37065 ft | 493 kts | 96° |
| 2026-05-06 00:08 | -36.37671 | 161.90179 | 37062 ft | 493 kts | 96° |
| 2026-05-06 00:08 | -36.38832 | 161.98556 | 37063 ft | 492 kts | 96° |
| 2026-05-06 00:09 | -36.39988 | 162.06944 | 37061 ft | 492 kts | 96° |
| 2026-05-06 00:09 | -36.41138 | 162.15326 | 37068 ft | 492 kts | 96° |
| 2026-05-06 00:10 | -36.42280 | 162.23704 | 37069 ft | 492 kts | 96° |
| 2026-05-06 00:10 | -36.43418 | 162.32097 | 37073 ft | 492 kts | 96° |
| 2026-05-06 00:11 | -36.44551 | 162.40493 | 37063 ft | 493 kts | 96° |
| 2026-05-06 00:11 | -36.45670 | 162.48838 | 37065 ft | 493 kts | 96° |
| 2026-05-06 00:12 | -36.46792 | 162.57240 | 37062 ft | 492 kts | 96° |
| 2026-05-06 00:12 | -36.47905 | 162.65634 | 37064 ft | 492 kts | 96° |
| 2026-05-06 00:13 | -36.49014 | 162.74034 | 37065 ft | 492 kts | 96° |
| 2026-05-06 00:13 | -36.50114 | 162.82425 | 37072 ft | 491 kts | 96° |
| 2026-05-06 00:14 | -36.51208 | 162.90811 | 37069 ft | 491 kts | 96° |
| 2026-05-06 00:14 | -36.52297 | 162.99195 | 37073 ft | 491 kts | 96° |
| 2026-05-06 00:15 | -36.53378 | 163.07586 | 37072 ft | 491 kts | 96° |
| 2026-05-06 00:15 | -36.54451 | 163.15987 | 37079 ft | 492 kts | 96° |
| 2026-05-06 00:16 | -36.55518 | 163.24385 | 37079 ft | 492 kts | 96° |
| 2026-05-06 00:16 | -36.56574 | 163.32736 | 37081 ft | 492 kts | 96° |
| 2026-05-06 00:17 | -36.57632 | 163.41151 | 37089 ft | 493 kts | 96° |
| 2026-05-06 00:17 | -36.58687 | 163.49593 | 37081 ft | 494 kts | 96° |
| 2026-05-06 00:18 | -36.59737 | 163.58051 | 37090 ft | 494 kts | 96° |
| 2026-05-06 00:18 | -36.60783 | 163.66516 | 37093 ft | 495 kts | 96° |
| 2026-05-06 00:19 | -36.61823 | 163.74986 | 37113 ft | 496 kts | 96° |
| 2026-05-06 00:19 | -36.62854 | 163.83440 | 37106 ft | 497 kts | 95° |
| 2026-05-06 00:20 | -36.63892 | 163.92007 | 37130 ft | 504 kts | 96° |
| 2026-05-06 00:20 | -36.64927 | 164.00594 | 37055 ft | 495 kts | 96° |
| 2026-05-06 00:21 | -36.65769 | 164.07598 | 37099 ft | 490 kts | 96° |
| 2026-05-06 00:21 | -36.66769 | 164.15990 | 37109 ft | 490 kts | 96° |
| 2026-05-06 00:22 | -36.67762 | 164.24389 | 37114 ft | 490 kts | 96° |
| 2026-05-06 00:22 | -36.68751 | 164.32800 | 37112 ft | 492 kts | 96° |
| 2026-05-06 00:23 | -36.69741 | 164.41265 | 37119 ft | 494 kts | 96° |
| 2026-05-06 00:23 | -36.70729 | 164.49767 | 37121 ft | 496 kts | 96° |
| 2026-05-06 00:24 | -36.71707 | 164.58241 | 37124 ft | 498 kts | 96° |
| 2026-05-06 00:24 | -36.72692 | 164.66819 | 37125 ft | 500 kts | 96° |
| 2026-05-06 00:25 | -36.73671 | 164.75411 | 37127 ft | 501 kts | 96° |
| 2026-05-06 00:25 | -36.74646 | 164.84017 | 37129 ft | 501 kts | 96° |
| 2026-05-06 00:26 | -36.75614 | 164.92620 | 37132 ft | 501 kts | 96° |
| 2026-05-06 00:26 | -36.76576 | 165.01225 | 37134 ft | 500 kts | 96° |
| 2026-05-06 00:27 | -36.77523 | 165.09753 | 37137 ft | 499 kts | 96° |
| 2026-05-06 00:27 | -36.78469 | 165.18333 | 37140 ft | 498 kts | 96° |
| 2026-05-06 00:28 | -36.79406 | 165.26893 | 37143 ft | 498 kts | 96° |
| 2026-05-06 00:28 | -36.80336 | 165.35443 | 37147 ft | 497 kts | 96° |
| 2026-05-06 00:29 | -36.81261 | 165.44001 | 37147 ft | 496 kts | 96° |